Time,TemperatureF,DewpointF,PressureIn,WindDirection,WindDirectionDegrees,WindSpeedMPH,WindSpeedGustMPH,Humidity,HourlyPrecipIn,Conditions,Clouds,dailyrainin,SolarRadiationWatts/m^2,SoftwareType,DateUTC
2013-09-07 00:22:00,46.0,46.0,-100.00,NE,37,0.0,0.0,99,0.01,,,0.17,0.000000,,2013-09-07 08:22:00,
2013-09-07 00:32:00,46.0,46.0,-100.00,NE,37,0.0,0.0,99,0.01,,,0.17,0.000000,,2013-09-07 08:32:00,
2013-09-07 00:43:00,46.0,46.0,-100.00,NE,37,0.0,0.0,99,0.01,,,0.17,0.000000,,2013-09-07 08:43:00,
2013-09-07 00:52:00,46.0,46.0,-100.00,NE,37,0.0,0.0,99,0.01,,,0.17,0.000000,,2013-09-07 08:52:00,
2013-09-07 01:21:00,46.0,45.0,-100.00,NE,43,0.0,0.0,98,0.00,,,0.17,0.000000,,2013-09-07 09:21:00,
2013-09-07 01:32:00,46.0,45.0,-100.00,NE,43,0.0,0.0,98,0.00,,,0.17,0.000000,,2013-09-07 09:32:00,
2013-09-07 01:42:00,46.0,45.0,-100.00,NE,43,0.0,0.0,98,0.00,,,0.17,0.000000,,2013-09-07 09:42:00,
2013-09-07 01:52:00,46.0,45.0,-100.00,NE,43,0.0,0.0,98,0.00,,,0.17,0.000000,,2013-09-07 09:52:00,
2013-09-07 02:21:00,47.0,47.0,-100.00,NNE,28,0.0,0.0,99,0.00,,,0.17,0.000000,,2013-09-07 10:21:00,
2013-09-07 02:31:00,47.0,47.0,-100.00,NNE,28,0.0,0.0,99,0.00,,,0.17,0.000000,,2013-09-07 10:31:00,
2013-09-07 02:41:00,47.0,47.0,-100.00,NNE,28,0.0,0.0,99,0.00,,,0.17,0.000000,,2013-09-07 10:41:00,
2013-09-07 02:51:00,47.0,47.0,-100.00,NNE,28,0.0,0.0,99,0.00,,,0.17,0.000000,,2013-09-07 10:51:00,
2013-09-07 03:23:00,46.0,44.0,-100.00,NNE,13,0.0,0.0,93,0.00,,,0.17,0.000000,,2013-09-07 11:23:00,
2013-09-07 03:33:00,46.0,44.0,-100.00,NNE,13,0.0,0.0,93,0.00,,,0.17,0.000000,,2013-09-07 11:33:00,
2013-09-07 03:43:00,46.0,44.0,-100.00,NNE,13,0.0,0.0,93,0.00,,,0.17,0.000000,,2013-09-07 11:43:00,
2013-09-07 03:52:00,46.0,44.0,-100.00,NNE,13,0.0,0.0,93,0.00,,,0.17,0.000000,,2013-09-07 11:52:00,
2013-09-07 04:22:00,48.0,48.0,-100.00,WNW,291,0.0,0.0,99,0.00,,,0.17,0.000000,,2013-09-07 12:22:00,
2013-09-07 04:32:00,48.0,48.0,-100.00,WNW,291,0.0,0.0,99,0.00,,,0.17,0.000000,,2013-09-07 12:32:00,
2013-09-07 04:42:00,48.0,48.0,-100.00,WNW,291,0.0,0.0,99,0.00,,,0.17,0.000000,,2013-09-07 12:42:00,
2013-09-07 04:52:00,48.0,48.0,-100.00,WNW,291,0.0,0.0,99,0.00,,,0.17,0.000000,,2013-09-07 12:52:00,
2013-09-07 05:21:00,46.0,46.0,-100.00,NNE,29,0.0,0.0,99,0.00,,,0.17,0.000000,,2013-09-07 13:21:00,
2013-09-07 05:32:00,46.0,46.0,-100.00,NNE,29,0.0,0.0,99,0.00,,,0.17,0.000000,,2013-09-07 13:32:00,
2013-09-07 05:42:00,46.0,46.0,-100.00,NNE,29,0.0,0.0,99,0.00,,,0.17,0.000000,,2013-09-07 13:42:00,
2013-09-07 05:52:00,46.0,46.0,-100.00,NNE,29,0.0,0.0,99,0.00,,,0.17,0.000000,,2013-09-07 13:52:00,
2013-09-07 06:22:00,47.0,46.0,-100.00,NNE,26,0.0,0.0,96,0.00,,,0.17,0.000000,,2013-09-07 14:22:00,
2013-09-07 06:32:00,47.0,46.0,-100.00,NNE,26,0.0,0.0,96,0.00,,,0.17,0.000000,,2013-09-07 14:32:00,
2013-09-07 06:42:00,47.0,46.0,-100.00,NNE,26,0.0,0.0,96,0.00,,,0.17,0.000000,,2013-09-07 14:42:00,
2013-09-07 06:52:00,47.0,46.0,-100.00,NNE,26,0.0,0.0,96,0.00,,,0.17,0.000000,,2013-09-07 14:52:00,
2013-09-07 07:22:00,48.0,45.0,-100.00,NNE,32,0.0,0.0,90,0.00,,,0.17,0.000000,,2013-09-07 15:22:00,
2013-09-07 07:34:00,48.0,45.0,-100.00,NNE,32,0.0,0.0,90,0.00,,,0.17,0.000000,,2013-09-07 15:34:00,
2013-09-07 07:44:00,48.0,45.0,-100.00,NNE,32,0.0,0.0,90,0.00,,,0.17,0.000000,,2013-09-07 15:44:00,
2013-09-07 07:53:00,48.0,45.0,-100.00,NNE,32,0.0,0.0,90,0.00,,,0.17,0.000000,,2013-09-07 15:53:00,
2013-09-07 08:24:00,48.0,44.0,-100.00,NE,42,0.0,0.0,85,0.00,,,0.14,4.000000,,2013-09-07 16:24:00,
2013-09-07 08:34:00,48.0,44.0,-100.00,NE,42,0.0,0.0,85,0.00,,,0.14,4.000000,,2013-09-07 16:34:00,
2013-09-07 08:43:00,48.0,44.0,-100.00,NE,42,0.0,0.0,85,0.00,,,0.14,4.000000,,2013-09-07 16:43:00,
2013-09-07 08:53:00,48.0,44.0,-100.00,NE,42,0.0,0.0,85,0.00,,,0.14,4.000000,,2013-09-07 16:53:00,
2013-09-07 09:24:00,48.0,45.0,-100.00,NE,41,0.0,0.0,88,0.00,,,0.11,13.000000,,2013-09-07 17:24:00,
2013-09-07 09:33:00,48.0,45.0,-100.00,NE,41,0.0,0.0,88,0.00,,,0.11,13.000000,,2013-09-07 17:33:00,
2013-09-07 09:43:00,48.0,45.0,-100.00,NE,41,0.0,0.0,88,0.00,,,0.11,13.000000,,2013-09-07 17:43:00,
2013-09-07 09:52:00,48.0,45.0,-100.00,NE,41,0.0,0.0,88,0.00,,,0.11,13.000000,,2013-09-07 17:52:00,
2013-09-07 10:22:00,49.0,47.0,-100.00,NE,46,0.0,0.0,93,0.01,,,0.09,32.000000,,2013-09-07 18:22:00,
2013-09-07 10:32:00,49.0,47.0,-100.00,NE,46,0.0,0.0,93,0.01,,,0.09,32.000000,,2013-09-07 18:32:00,
2013-09-07 10:43:00,49.0,47.0,-100.00,NE,46,0.0,0.0,93,0.01,,,0.09,32.000000,,2013-09-07 18:43:00,
2013-09-07 10:52:00,49.0,47.0,-100.00,NE,46,0.0,0.0,93,0.01,,,0.09,32.000000,,2013-09-07 18:52:00,
2013-09-07 11:22:00,50.0,47.0,-100.00,NNE,28,0.0,0.0,90,0.00,,,-99.99,114.000000,,2013-09-07 19:22:00,
2013-09-07 11:32:00,50.0,47.0,-100.00,NNE,28,0.0,0.0,90,0.00,,,-99.99,114.000000,,2013-09-07 19:32:00,
2013-09-07 11:42:00,50.0,47.0,-100.00,NNE,28,0.0,0.0,90,0.00,,,-99.99,114.000000,,2013-09-07 19:42:00,
2013-09-07 11:52:00,50.0,47.0,-100.00,NNE,28,0.0,0.0,90,0.00,,,-99.99,114.000000,,2013-09-07 19:52:00,
2013-09-07 12:22:00,54.0,50.0,-100.00,NNE,17,0.0,0.0,86,0.00,,,0.08,234.000000,,2013-09-07 20:22:00,
2013-09-07 12:32:00,54.0,50.0,-100.00,NNE,17,0.0,0.0,86,0.00,,,0.08,234.000000,,2013-09-07 20:32:00,
2013-09-07 12:42:00,54.0,50.0,-100.00,NNE,17,0.0,0.0,86,0.00,,,0.08,234.000000,,2013-09-07 20:42:00,
2013-09-07 12:52:00,54.0,50.0,-100.00,NNE,17,0.0,0.0,86,0.00,,,0.08,234.000000,,2013-09-07 20:52:00,
2013-09-07 13:22:00,54.0,48.0,-100.00,North,350,0.0,1.0,79,0.00,,,0.04,428.000000,,2013-09-07 21:22:00,
2013-09-07 13:34:00,54.0,48.0,-100.00,North,350,0.0,1.0,79,0.00,,,0.04,428.000000,,2013-09-07 21:34:00,
2013-09-07 13:44:00,54.0,48.0,-100.00,North,350,0.0,1.0,79,0.00,,,0.04,428.000000,,2013-09-07 21:44:00,
2013-09-07 13:54:00,54.0,48.0,-100.00,North,350,0.0,1.0,79,0.00,,,0.04,428.000000,,2013-09-07 21:54:00,
2013-09-07 14:24:00,53.0,48.0,-100.00,North,349,0.0,1.0,84,0.00,,,0.04,161.000000,,2013-09-07 22:24:00,
2013-09-07 14:33:00,53.0,48.0,-100.00,North,349,0.0,1.0,84,0.00,,,0.04,161.000000,,2013-09-07 22:33:00,
2013-09-07 14:43:00,53.0,48.0,-100.00,North,349,0.0,1.0,84,0.00,,,0.04,161.000000,,2013-09-07 22:43:00,
2013-09-07 14:53:00,53.0,48.0,-100.00,North,349,0.0,1.0,84,0.00,,,0.04,161.000000,,2013-09-07 22:53:00,
2013-09-07 15:23:00,54.0,48.0,-100.00,NNW,347,0.0,0.0,81,0.00,,,0.04,202.000000,,2013-09-07 23:23:00,
2013-09-07 15:34:00,54.0,48.0,-100.00,NNW,347,0.0,0.0,81,0.00,,,0.04,202.000000,,2013-09-07 23:34:00,
2013-09-07 15:42:00,54.0,48.0,-100.00,NNW,347,0.0,0.0,81,0.00,,,0.04,202.000000,,2013-09-07 23:42:00,
2013-09-07 15:52:00,54.0,48.0,-100.00,NNW,347,0.0,0.0,81,0.00,,,0.04,202.000000,,2013-09-07 23:52:00,
2013-09-07 16:22:00,57.0,52.0,-100.00,NNW,346,1.0,2.0,82,0.00,,,0.04,345.000000,,2013-09-08 00:22:00,
2013-09-07 16:32:00,57.0,52.0,-100.00,NNW,346,1.0,2.0,82,0.00,,,0.04,345.000000,,2013-09-08 00:32:00,
2013-09-07 16:42:00,57.0,52.0,-100.00,NNW,346,1.0,2.0,82,0.00,,,0.04,345.000000,,2013-09-08 00:42:00,
2013-09-07 16:52:00,57.0,52.0,-100.00,NNW,346,1.0,2.0,82,0.00,,,0.04,345.000000,,2013-09-08 00:52:00,
2013-09-07 17:22:00,56.0,52.0,-100.00,NNW,332,1.0,6.0,85,0.00,,,0.04,244.000000,,2013-09-08 01:22:00,
2013-09-07 17:32:00,56.0,52.0,-100.00,NNW,332,1.0,6.0,85,0.00,,,0.04,244.000000,,2013-09-08 01:32:00,
2013-09-07 17:42:00,56.0,52.0,-100.00,NNW,332,1.0,6.0,85,0.00,,,0.04,244.000000,,2013-09-08 01:42:00,
2013-09-07 17:52:00,56.0,52.0,-100.00,NNW,332,1.0,6.0,85,0.00,,,0.04,244.000000,,2013-09-08 01:52:00,
2013-09-07 18:22:00,57.0,51.0,-100.00,NNW,348,1.0,5.0,81,0.00,,,0.04,217.000000,,2013-09-08 02:22:00,
2013-09-07 18:32:00,57.0,51.0,-100.00,NNW,348,1.0,5.0,81,0.00,,,0.04,217.000000,,2013-09-08 02:32:00,
2013-09-07 18:43:00,57.0,51.0,-100.00,NNW,348,1.0,5.0,81,0.00,,,0.04,217.000000,,2013-09-08 02:43:00,
2013-09-07 18:52:00,57.0,51.0,-100.00,NNW,348,1.0,5.0,81,0.00,,,0.04,217.000000,,2013-09-08 02:52:00,
2013-09-07 19:22:00,54.0,50.0,-100.00,WNW,290,1.0,2.0,87,0.00,,,0.04,137.000000,,2013-09-08 03:22:00,
2013-09-07 19:34:00,54.0,50.0,-100.00,WNW,290,1.0,2.0,87,0.00,,,0.04,137.000000,,2013-09-08 03:34:00,
2013-09-07 19:44:00,54.0,50.0,-100.00,WNW,290,1.0,2.0,87,0.00,,,0.04,137.000000,,2013-09-08 03:44:00,
2013-09-07 19:54:00,54.0,50.0,-100.00,WNW,290,1.0,2.0,87,0.00,,,0.04,137.000000,,2013-09-08 03:54:00,
2013-09-07 20:24:00,52.0,50.0,-100.00,NNE,12,3.0,7.0,94,0.00,,,0.03,46.000000,,2013-09-08 04:24:00,
2013-09-07 20:34:00,52.0,50.0,-100.00,NNE,12,3.0,7.0,94,0.00,,,0.03,46.000000,,2013-09-08 04:34:00,
2013-09-07 20:43:00,52.0,50.0,-100.00,NNE,12,3.0,7.0,94,0.00,,,0.03,46.000000,,2013-09-08 04:43:00,
2013-09-07 20:53:00,52.0,50.0,-100.00,NNE,12,3.0,7.0,94,0.00,,,0.03,46.000000,,2013-09-08 04:53:00,
2013-09-07 21:23:00,50.0,49.0,-100.00,SE,131,1.0,5.0,97,0.00,,,0.03,14.000000,,2013-09-08 05:23:00,
2013-09-07 21:34:00,50.0,49.0,-100.00,SE,131,1.0,5.0,97,0.00,,,0.03,14.000000,,2013-09-08 05:34:00,
2013-09-07 21:43:00,50.0,49.0,-100.00,SE,131,1.0,5.0,97,0.00,,,0.03,14.000000,,2013-09-08 05:43:00,
2013-09-07 21:52:00,50.0,49.0,-100.00,SE,131,1.0,5.0,97,0.00,,,0.03,14.000000,,2013-09-08 05:52:00,
2013-09-07 22:21:00,50.0,49.0,-100.00,NNE,27,2.0,5.0,97,0.00,,,0.03,0.000000,,2013-09-08 06:21:00,
2013-09-07 22:33:00,50.0,49.0,-100.00,NNE,27,2.0,5.0,97,0.00,,,0.03,0.000000,,2013-09-08 06:33:00,
2013-09-07 22:42:00,50.0,49.0,-100.00,NNE,27,2.0,5.0,97,0.00,,,0.03,0.000000,,2013-09-08 06:42:00,
2013-09-07 22:53:00,50.0,49.0,-100.00,NNE,27,2.0,5.0,97,0.00,,,0.03,0.000000,,2013-09-08 06:53:00,
2013-09-07 23:23:00,49.0,49.0,-100.00,North,351,1.0,6.0,99,0.01,,,0.03,0.000000,,2013-09-08 07:23:00,
2013-09-07 23:32:00,49.0,49.0,-100.00,North,351,1.0,6.0,99,0.01,,,0.03,0.000000,,2013-09-08 07:32:00,
2013-09-07 23:42:00,49.0,49.0,-100.00,North,351,1.0,6.0,99,0.01,,,0.03,0.000000,,2013-09-08 07:42:00,
2013-09-07 23:52:00,49.0,49.0,-100.00,North,351,1.0,6.0,99,0.01,,,0.03,0.000000,,2013-09-08 07:52:00,